sensor_id;sensor_type;location;lat;lon;timestamp;P1;durP1;ratioP1;P2;durP2;ratioP2
21624;SDS011;10974;51.034;3.744;2022-10-26T04:02:45;7.70;;;2.53;;
21624;SDS011;10974;51.034;3.744;2022-10-26T04:05:17;5.20;;;2.60;;
21624;SDS011;10974;51.034;3.744;2022-10-26T04:07:43;5.17;;;3.00;;
21624;SDS011;10974;51.034;3.744;2022-10-26T04:10:15;4.87;;;2.37;;
21624;SDS011;10974;51.034;3.744;2022-10-26T04:12:41;4.93;;;2.30;;
21624;SDS011;10974;51.034;3.744;2022-10-26T04:15:06;8.37;;;3.07;;
21624;SDS011;10974;51.034;3.744;2022-10-26T04:17:32;6.13;;;2.80;;
21624;SDS011;10974;51.034;3.744;2022-10-26T04:19:58;4.77;;;2.43;;
21624;SDS011;10974;51.034;3.744;2022-10-26T04:22:23;5.03;;;2.53;;
21624;SDS011;10974;51.034;3.744;2022-10-26T04:24:49;3.53;;;1.90;;
21624;SDS011;10974;51.034;3.744;2022-10-26T04:27:15;8.67;;;2.30;;
21624;SDS011;10974;51.034;3.744;2022-10-26T04:29:40;7.20;;;2.70;;
21624;SDS011;10974;51.034;3.744;2022-10-26T04:32:06;4.07;;;2.23;;
21624;SDS011;10974;51.034;3.744;2022-10-26T04:34:32;4.30;;;1.80;;
21624;SDS011;10974;51.034;3.744;2022-10-26T04:36:57;5.73;;;1.90;;
21624;SDS011;10974;51.034;3.744;2022-10-26T04:39:23;2.53;;;1.93;;
21624;SDS011;10974;51.034;3.744;2022-10-26T04:41:49;5.90;;;2.07;;
21624;SDS011;10974;51.034;3.744;2022-10-26T04:44:15;4.20;;;2.00;;
21624;SDS011;10974;51.034;3.744;2022-10-26T04:46:41;4.00;;;1.87;;
21624;SDS011;10974;51.034;3.744;2022-10-26T04:49:06;5.03;;;2.30;;
21624;SDS011;10974;51.034;3.744;2022-10-26T04:51:32;3.03;;;1.87;;
21624;SDS011;10974;51.034;3.744;2022-10-26T04:53:57;2.90;;;1.83;;
21624;SDS011;10974;51.034;3.744;2022-10-26T04:56:23;7.27;;;1.93;;
21624;SDS011;10974;51.034;3.744;2022-10-26T04:58:49;3.67;;;2.00;;
21624;SDS011;10974;51.034;3.744;2022-10-26T05:01:17;3.23;;;1.70;;
21624;SDS011;10974;51.034;3.744;2022-10-26T05:03:42;2.90;;;1.70;;
21624;SDS011;10974;51.034;3.744;2022-10-26T05:06:08;4.00;;;2.07;;
21624;SDS011;10974;51.034;3.744;2022-10-26T05:08:34;2.90;;;1.83;;
21624;SDS011;10974;51.034;3.744;2022-10-26T05:10:59;5.43;;;2.00;;
21624;SDS011;10974;51.034;3.744;2022-10-26T05:13:25;4.27;;;2.10;;
21624;SDS011;10974;51.034;3.744;2022-10-26T05:15:53;5.60;;;2.10;;
21624;SDS011;10974;51.034;3.744;2022-10-26T05:18:19;4.30;;;2.23;;
21624;SDS011;10974;51.034;3.744;2022-10-26T05:20:46;4.80;;;2.10;;
21624;SDS011;10974;51.034;3.744;2022-10-26T05:23:14;4.60;;;1.90;;
21624;SDS011;10974;51.034;3.744;2022-10-26T05:25:42;7.63;;;2.37;;
21624;SDS011;10974;51.034;3.744;2022-10-26T05:28:09;4.80;;;2.10;;
21624;SDS011;10974;51.034;3.744;2022-10-26T05:30:37;3.77;;;1.90;;
21624;SDS011;10974;51.034;3.744;2022-10-26T05:33:08;4.33;;;1.97;;
21624;SDS011;10974;51.034;3.744;2022-10-26T05:35:35;3.50;;;1.97;;
21624;SDS011;10974;51.034;3.744;2022-10-26T05:38:13;3.37;;;2.20;;
21624;SDS011;10974;51.034;3.744;2022-10-26T05:40:50;4.20;;;2.13;;
21624;SDS011;10974;51.034;3.744;2022-10-26T05:43:17;3.57;;;2.03;;
21624;SDS011;10974;51.034;3.744;2022-10-26T05:45:44;4.70;;;2.10;;
21624;SDS011;10974;51.034;3.744;2022-10-26T05:48:10;3.80;;;2.00;;
21624;SDS011;10974;51.034;3.744;2022-10-26T05:50:36;4.20;;;2.40;;
21624;SDS011;10974;51.034;3.744;2022-10-26T05:53:02;5.13;;;2.00;;
21624;SDS011;10974;51.034;3.744;2022-10-26T05:55:27;4.73;;;2.13;;
21624;SDS011;10974;51.034;3.744;2022-10-26T05:57:53;2.80;;;1.50;;
21624;SDS011;10974;51.034;3.744;2022-10-26T06:00:20;2.93;;;1.50;;
21624;SDS011;10974;51.034;3.744;2022-10-26T06:03:00;1.53;;;1.40;;
21624;SDS011;10974;51.034;3.744;2022-10-26T06:08:35;7.90;;;1.60;;
21624;SDS011;10974;51.034;3.744;2022-10-26T06:11:01;2.17;;;1.40;;
21624;SDS011;10974;51.034;3.744;2022-10-26T06:13:27;2.87;;;1.40;;
21624;SDS011;10974;51.034;3.744;2022-10-26T06:16:00;6.33;;;1.53;;
21624;SDS011;10974;51.034;3.744;2022-10-26T06:24:08;1.90;;;1.33;;
21624;SDS011;10974;51.034;3.744;2022-10-26T06:31:42;4.10;;;1.60;;
21624;SDS011;10974;51.034;3.744;2022-10-26T06:34:08;2.63;;;1.60;;
21624;SDS011;10974;51.034;3.744;2022-10-26T06:36:35;3.30;;;1.80;;
21624;SDS011;10974;51.034;3.744;2022-10-26T06:39:07;3.27;;;2.03;;
21624;SDS011;10974;51.034;3.744;2022-10-26T06:41:36;4.77;;;1.77;;
21624;SDS011;10974;51.034;3.744;2022-10-26T06:44:03;4.60;;;1.50;;
21624;SDS011;10974;51.034;3.744;2022-10-26T06:51:50;5.13;;;1.67;;
21624;SDS011;10974;51.034;3.744;2022-10-26T06:54:37;1.50;;;1.40;;
21624;SDS011;10974;51.034;3.744;2022-10-26T06:57:12;4.70;;;3.40;;
21624;SDS011;10974;51.034;3.744;2022-10-26T07:02:11;6.57;;;1.67;;
21624;SDS011;10974;51.034;3.744;2022-10-26T07:04:38;3.93;;;1.57;;
21624;SDS011;10974;51.034;3.744;2022-10-26T07:07:04;5.50;;;1.80;;
21624;SDS011;10974;51.034;3.744;2022-10-26T07:09:30;3.30;;;1.90;;
21624;SDS011;10974;51.034;3.744;2022-10-26T07:11:56;6.93;;;1.73;;
21624;SDS011;10974;51.034;3.744;2022-10-26T07:14:21;3.50;;;1.40;;
21624;SDS011;10974;51.034;3.744;2022-10-26T07:16:47;2.47;;;1.43;;
21624;SDS011;10974;51.034;3.744;2022-10-26T07:19:12;4.80;;;2.20;;
21624;SDS011;10974;51.034;3.744;2022-10-26T07:21:38;4.40;;;1.70;;
21624;SDS011;10974;51.034;3.744;2022-10-26T07:24:04;1.97;;;1.70;;
21624;SDS011;10974;51.034;3.744;2022-10-26T07:26:30;6.00;;;2.17;;
21624;SDS011;10974;51.034;3.744;2022-10-26T07:28:55;3.07;;;1.73;;
21624;SDS011;10974;51.034;3.744;2022-10-26T07:31:21;3.43;;;2.23;;
21624;SDS011;10974;51.034;3.744;2022-10-26T07:33:46;2.70;;;1.73;;
21624;SDS011;10974;51.034;3.744;2022-10-26T07:36:12;3.53;;;1.90;;
21624;SDS011;10974;51.034;3.744;2022-10-26T07:38:38;5.37;;;2.03;;
21624;SDS011;10974;51.034;3.744;2022-10-26T07:41:04;3.63;;;2.03;;
21624;SDS011;10974;51.034;3.744;2022-10-26T07:43:30;3.13;;;2.07;;
21624;SDS011;10974;51.034;3.744;2022-10-26T07:45:56;5.67;;;2.03;;
21624;SDS011;10974;51.034;3.744;2022-10-26T07:48:21;4.73;;;2.13;;
21624;SDS011;10974;51.034;3.744;2022-10-26T07:50:47;1.90;;;1.60;;
21624;SDS011;10974;51.034;3.744;2022-10-26T07:53:13;3.50;;;1.73;;
21624;SDS011;10974;51.034;3.744;2022-10-26T07:55:38;5.73;;;1.50;;
21624;SDS011;10974;51.034;3.744;2022-10-26T07:58:04;3.80;;;1.90;;
21624;SDS011;10974;51.034;3.744;2022-10-26T08:00:30;7.77;;;2.63;;
21624;SDS011;10974;51.034;3.744;2022-10-26T08:02:55;2.30;;;1.50;;
21624;SDS011;10974;51.034;3.744;2022-10-26T08:05:21;3.77;;;1.93;;
21624;SDS011;10974;51.034;3.744;2022-10-26T08:07:47;3.00;;;1.83;;
21624;SDS011;10974;51.034;3.744;2022-10-26T08:10:13;3.20;;;1.80;;
21624;SDS011;10974;51.034;3.744;2022-10-26T08:12:40;3.33;;;1.73;;
21624;SDS011;10974;51.034;3.744;2022-10-26T08:15:07;4.60;;;2.10;;
21624;SDS011;10974;51.034;3.744;2022-10-26T08:17:33;2.10;;;1.57;;
21624;SDS011;10974;51.034;3.744;2022-10-26T08:19:59;1.43;;;1.33;;
21624;SDS011;10974;51.034;3.744;2022-10-26T08:22:27;4.77;;;1.50;;
21624;SDS011;10974;51.034;3.744;2022-10-26T08:24:54;2.87;;;1.40;;
21624;SDS011;10974;51.034;3.744;2022-10-26T08:27:19;3.17;;;1.50;;
21624;SDS011;10974;51.034;3.744;2022-10-26T08:29:45;2.53;;;1.83;;
21624;SDS011;10974;51.034;3.744;2022-10-26T08:32:10;7.23;;;1.77;;
21624;SDS011;10974;51.034;3.744;2022-10-26T08:34:36;3.77;;;1.73;;
21624;SDS011;10974;51.034;3.744;2022-10-26T08:37:02;5.23;;;2.00;;
21624;SDS011;10974;51.034;3.744;2022-10-26T08:39:27;5.30;;;1.50;;
21624;SDS011;10974;51.034;3.744;2022-10-26T08:41:56;2.73;;;1.60;;
21624;SDS011;10974;51.034;3.744;2022-10-26T08:44:30;4.20;;;1.63;;
21624;SDS011;10974;51.034;3.744;2022-10-26T08:47:06;2.57;;;1.50;;
21624;SDS011;10974;51.034;3.744;2022-10-26T08:49:40;4.53;;;1.70;;
21624;SDS011;10974;51.034;3.744;2022-10-26T08:52:13;2.70;;;1.67;;
21624;SDS011;10974;51.034;3.744;2022-10-26T08:54:48;6.73;;;1.80;;
21624;SDS011;10974;51.034;3.744;2022-10-26T08:59:57;7.10;;;3.30;;
21624;SDS011;10974;51.034;3.744;2022-10-26T09:02:26;5.17;;;2.03;;
21624;SDS011;10974;51.034;3.744;2022-10-26T09:04:52;2.60;;;1.80;;
21624;SDS011;10974;51.034;3.744;2022-10-26T09:07:39;2.20;;;1.60;;
21624;SDS011;10974;51.034;3.744;2022-10-26T09:11:01;3.53;;;1.50;;
21624;SDS011;10974;51.034;3.744;2022-10-26T09:18:44;7.23;;;1.93;;
21624;SDS011;10974;51.034;3.744;2022-10-26T09:29:00;2.87;;;1.60;;
21624;SDS011;10974;51.034;3.744;2022-10-26T09:31:27;5.03;;;1.73;;
21624;SDS011;10974;51.034;3.744;2022-10-26T09:33:56;2.00;;;1.20;;
21624;SDS011;10974;51.034;3.744;2022-10-26T09:36:26;1.53;;;1.10;;
21624;SDS011;10974;51.034;3.744;2022-10-26T09:41:46;6.63;;;1.40;;
21624;SDS011;10974;51.034;3.744;2022-10-26T09:44:25;4.80;;;1.77;;
21624;SDS011;10974;51.034;3.744;2022-10-26T09:47:05;2.87;;;1.40;;
21624;SDS011;10974;51.034;3.744;2022-10-26T09:49:55;1.70;;;1.60;;
21624;SDS011;10974;51.034;3.744;2022-10-26T09:52:25;2.43;;;1.60;;
21624;SDS011;10974;51.034;3.744;2022-10-26T09:54:51;3.33;;;1.40;;
21624;SDS011;10974;51.034;3.744;2022-10-26T09:57:17;8.70;;;2.37;;
21624;SDS011;10974;51.034;3.744;2022-10-26T09:59:44;6.30;;;2.53;;
21624;SDS011;10974;51.034;3.744;2022-10-26T10:08:26;5.10;;;2.20;;
21624;SDS011;10974;51.034;3.744;2022-10-26T10:13:45;5.43;;;2.40;;
21624;SDS011;10974;51.034;3.744;2022-10-26T10:16:12;6.43;;;2.20;;
21624;SDS011;10974;51.034;3.744;2022-10-26T10:18:51;4.90;;;2.50;;
21624;SDS011;10974;51.034;3.744;2022-10-26T10:24:25;3.27;;;2.30;;
21624;SDS011;10974;51.034;3.744;2022-10-26T10:29:25;6.50;;;2.17;;
21624;SDS011;10974;51.034;3.744;2022-10-26T10:31:56;2.47;;;1.80;;
21624;SDS011;10974;51.034;3.744;2022-10-26T10:34:23;4.10;;;1.80;;
21624;SDS011;10974;51.034;3.744;2022-10-26T10:36:49;4.20;;;1.63;;
21624;SDS011;10974;51.034;3.744;2022-10-26T10:39:37;7.00;;;1.97;;
21624;SDS011;10974;51.034;3.744;2022-10-26T10:42:06;4.80;;;1.97;;
21624;SDS011;10974;51.034;3.744;2022-10-26T10:44:40;6.37;;;2.03;;
21624;SDS011;10974;51.034;3.744;2022-10-26T10:47:13;5.30;;;1.90;;
21624;SDS011;10974;51.034;3.744;2022-10-26T10:50:10;4.03;;;1.87;;
21624;SDS011;10974;51.034;3.744;2022-10-26T10:52:41;4.70;;;1.60;;
21624;SDS011;10974;51.034;3.744;2022-10-26T11:00:23;5.10;;;1.90;;
21624;SDS011;10974;51.034;3.744;2022-10-26T11:02:54;5.37;;;1.90;;
21624;SDS011;10974;51.034;3.744;2022-10-26T11:11:09;4.43;;;2.17;;
21624;SDS011;10974;51.034;3.744;2022-10-26T11:16:32;5.63;;;1.90;;
21624;SDS011;10974;51.034;3.744;2022-10-26T11:22:16;5.47;;;2.00;;
21624;SDS011;10974;51.034;3.744;2022-10-26T11:24:48;3.93;;;1.93;;
21624;SDS011;10974;51.034;3.744;2022-10-26T11:27:39;5.40;;;2.07;;
21624;SDS011;10974;51.034;3.744;2022-10-26T11:30:22;4.10;;;1.83;;
21624;SDS011;10974;51.034;3.744;2022-10-26T11:32:53;9.57;;;1.87;;
21624;SDS011;10974;51.034;3.744;2022-10-26T11:35:21;5.37;;;2.13;;
21624;SDS011;10974;51.034;3.744;2022-10-26T11:37:55;7.00;;;2.10;;
21624;SDS011;10974;51.034;3.744;2022-10-26T11:40:33;5.13;;;2.40;;
21624;SDS011;10974;51.034;3.744;2022-10-26T11:46:09;6.40;;;2.07;;
21624;SDS011;10974;51.034;3.744;2022-10-26T11:48:52;2.90;;;2.00;;
21624;SDS011;10974;51.034;3.744;2022-10-26T11:54:09;5.03;;;2.10;;
21624;SDS011;10974;51.034;3.744;2022-10-26T11:56:50;4.07;;;2.03;;
21624;SDS011;10974;51.034;3.744;2022-10-26T11:59:20;4.80;;;2.10;;
21624;SDS011;10974;51.034;3.744;2022-10-26T12:01:49;12.17;;;2.30;;
21624;SDS011;10974;51.034;3.744;2022-10-26T12:04:17;5.37;;;2.17;;
21624;SDS011;10974;51.034;3.744;2022-10-26T12:06:46;5.40;;;2.23;;
21624;SDS011;10974;51.034;3.744;2022-10-26T12:09:16;7.23;;;1.80;;
21624;SDS011;10974;51.034;3.744;2022-10-26T12:11:49;4.93;;;2.57;;
21624;SDS011;10974;51.034;3.744;2022-10-26T12:17:37;4.53;;;1.97;;
21624;SDS011;10974;51.034;3.744;2022-10-26T12:20:32;5.50;;;1.97;;
21624;SDS011;10974;51.034;3.744;2022-10-26T12:23:10;10.70;;;2.30;;
21624;SDS011;10974;51.034;3.744;2022-10-26T12:25:36;8.47;;;2.20;;
21624;SDS011;10974;51.034;3.744;2022-10-26T12:28:02;6.30;;;1.83;;
21624;SDS011;10974;51.034;3.744;2022-10-26T12:30:29;3.90;;;1.97;;
21624;SDS011;10974;51.034;3.744;2022-10-26T12:33:00;4.10;;;2.00;;
21624;SDS011;10974;51.034;3.744;2022-10-26T12:35:42;5.00;;;2.10;;
21624;SDS011;10974;51.034;3.744;2022-10-26T12:56:20;5.47;;;1.80;;
21624;SDS011;10974;51.034;3.744;2022-10-26T12:58:58;3.70;;;1.70;;
21624;SDS011;10974;51.034;3.744;2022-10-26T13:04:47;8.53;;;1.90;;
21624;SDS011;10974;51.034;3.744;2022-10-26T13:07:23;5.37;;;1.73;;
21624;SDS011;10974;51.034;3.744;2022-10-26T13:09:58;6.00;;;2.30;;
21624;SDS011;10974;51.034;3.744;2022-10-26T13:12:35;4.20;;;1.90;;
21624;SDS011;10974;51.034;3.744;2022-10-26T13:17:52;2.80;;;1.63;;
21624;SDS011;10974;51.034;3.744;2022-10-26T13:20:22;4.50;;;1.70;;
21624;SDS011;10974;51.034;3.744;2022-10-26T13:22:48;5.63;;;1.57;;
21624;SDS011;10974;51.034;3.744;2022-10-26T13:25:32;3.77;;;1.67;;
21624;SDS011;10974;51.034;3.744;2022-10-26T13:32:57;8.77;;;2.10;;
21624;SDS011;10974;51.034;3.744;2022-10-26T13:35:25;5.33;;;1.90;;
21624;SDS011;10974;51.034;3.744;2022-10-26T13:37:52;7.23;;;2.33;;
21624;SDS011;10974;51.034;3.744;2022-10-26T13:40:21;8.07;;;1.87;;
21624;SDS011;10974;51.034;3.744;2022-10-26T13:43:01;3.37;;;1.80;;
21624;SDS011;10974;51.034;3.744;2022-10-26T13:45:29;5.10;;;1.77;;
21624;SDS011;10974;51.034;3.744;2022-10-26T13:51:01;6.90;;;2.27;;
21624;SDS011;10974;51.034;3.744;2022-10-26T13:53:45;5.17;;;2.07;;
21624;SDS011;10974;51.034;3.744;2022-10-26T13:56:21;2.40;;;1.53;;
21624;SDS011;10974;51.034;3.744;2022-10-26T13:59:02;3.60;;;1.80;;
21624;SDS011;10974;51.034;3.744;2022-10-26T14:01:33;6.93;;;1.87;;
21624;SDS011;10974;51.034;3.744;2022-10-26T14:03:59;4.83;;;1.90;;
21624;SDS011;10974;51.034;3.744;2022-10-26T14:06:47;4.10;;;1.73;;
21624;SDS011;10974;51.034;3.744;2022-10-26T14:09:15;6.27;;;1.70;;
21624;SDS011;10974;51.034;3.744;2022-10-26T14:11:49;4.30;;;1.63;;
21624;SDS011;10974;51.034;3.744;2022-10-26T14:14:31;4.53;;;1.63;;
21624;SDS011;10974;51.034;3.744;2022-10-26T14:16:59;2.97;;;1.63;;
21624;SDS011;10974;51.034;3.744;2022-10-26T14:21:52;7.87;;;2.10;;
21624;SDS011;10974;51.034;3.744;2022-10-26T14:24:19;5.23;;;1.87;;
21624;SDS011;10974;51.034;3.744;2022-10-26T14:26:53;4.17;;;1.63;;
21624;SDS011;10974;51.034;3.744;2022-10-26T14:29:22;4.00;;;2.10;;
21624;SDS011;10974;51.034;3.744;2022-10-26T14:31:49;3.97;;;1.70;;
21624;SDS011;10974;51.034;3.744;2022-10-26T14:34:16;9.30;;;2.07;;
21624;SDS011;10974;51.034;3.744;2022-10-26T14:42:37;6.20;;;2.13;;
21624;SDS011;10974;51.034;3.744;2022-10-26T14:45:03;3.87;;;2.07;;
21624;SDS011;10974;51.034;3.744;2022-10-26T14:47:30;5.70;;;1.80;;
21624;SDS011;10974;51.034;3.744;2022-10-26T14:49:58;4.23;;;1.90;;
21624;SDS011;10974;51.034;3.744;2022-10-26T14:52:26;6.87;;;2.27;;
21624;SDS011;10974;51.034;3.744;2022-10-26T14:57:50;5.57;;;2.07;;
21624;SDS011;10974;51.034;3.744;2022-10-26T15:00:19;4.50;;;2.00;;
21624;SDS011;10974;51.034;3.744;2022-10-26T15:02:53;5.23;;;1.70;;
21624;SDS011;10974;51.034;3.744;2022-10-26T15:05:24;4.40;;;1.57;;
21624;SDS011;10974;51.034;3.744;2022-10-26T15:07:57;5.77;;;2.20;;
21624;SDS011;10974;51.034;3.744;2022-10-26T15:13:08;4.60;;;2.10;;
21624;SDS011;10974;51.034;3.744;2022-10-26T15:15:46;5.20;;;2.50;;
21624;SDS011;10974;51.034;3.744;2022-10-26T15:18:26;5.13;;;2.57;;
21624;SDS011;10974;51.034;3.744;2022-10-26T15:20:54;6.20;;;2.30;;
21624;SDS011;10974;51.034;3.744;2022-10-26T15:23:21;8.40;;;2.90;;
21624;SDS011;10974;51.034;3.744;2022-10-26T15:25:53;5.13;;;2.70;;
21624;SDS011;10974;51.034;3.744;2022-10-26T15:28:24;5.23;;;2.40;;
21624;SDS011;10974;51.034;3.744;2022-10-26T15:33:39;4.00;;;2.60;;
21624;SDS011;10974;51.034;3.744;2022-10-26T15:38:32;7.60;;;3.67;;
21624;SDS011;10974;51.034;3.744;2022-10-26T15:41:00;6.43;;;2.60;;
21624;SDS011;10974;51.034;3.744;2022-10-26T15:43:27;19.93;;;7.33;;
21624;SDS011;10974;51.034;3.744;2022-10-26T15:45:53;7.50;;;3.10;;
21624;SDS011;10974;51.034;3.744;2022-10-26T15:48:24;10.57;;;3.70;;
21624;SDS011;10974;51.034;3.744;2022-10-26T15:50:53;6.93;;;3.10;;
21624;SDS011;10974;51.034;3.744;2022-10-26T15:53:21;5.27;;;2.90;;
21624;SDS011;10974;51.034;3.744;2022-10-26T15:55:51;8.67;;;3.60;;
21624;SDS011;10974;51.034;3.744;2022-10-26T15:58:19;6.90;;;2.37;;
21624;SDS011;10974;51.034;3.744;2022-10-26T16:00:45;6.00;;;2.13;;
21624;SDS011;10974;51.034;3.744;2022-10-26T16:03:23;11.23;;;2.17;;
21624;SDS011;10974;51.034;3.744;2022-10-26T16:05:55;4.40;;;1.73;;
21624;SDS011;10974;51.034;3.744;2022-10-26T16:08:22;2.57;;;1.60;;
21624;SDS011;10974;51.034;3.744;2022-10-26T16:10:49;6.97;;;2.30;;
21624;SDS011;10974;51.034;3.744;2022-10-26T16:13:15;10.17;;;4.60;;
21624;SDS011;10974;51.034;3.744;2022-10-26T16:15:41;11.80;;;6.10;;
21624;SDS011;10974;51.034;3.744;2022-10-26T16:18:08;16.63;;;6.93;;
21624;SDS011;10974;51.034;3.744;2022-10-26T16:20:34;10.70;;;4.60;;
21624;SDS011;10974;51.034;3.744;2022-10-26T16:23:00;4.90;;;2.20;;
21624;SDS011;10974;51.034;3.744;2022-10-26T16:25:30;5.20;;;1.90;;
21624;SDS011;10974;51.034;3.744;2022-10-26T16:27:58;2.47;;;1.30;;
21624;SDS011;10974;51.034;3.744;2022-10-26T16:30:24;4.60;;;1.80;;
21624;SDS011;10974;51.034;3.744;2022-10-26T16:32:50;3.70;;;1.60;;
21624;SDS011;10974;51.034;3.744;2022-10-26T16:35:16;2.60;;;1.30;;
21624;SDS011;10974;51.034;3.744;2022-10-26T16:37:42;4.20;;;1.60;;
21624;SDS011;10974;51.034;3.744;2022-10-26T16:40:09;5.57;;;2.40;;
21624;SDS011;10974;51.034;3.744;2022-10-26T16:42:35;5.87;;;2.10;;
21624;SDS011;10974;51.034;3.744;2022-10-26T16:45:01;3.93;;;2.00;;
21624;SDS011;10974;51.034;3.744;2022-10-26T16:47:27;5.07;;;2.43;;
21624;SDS011;10974;51.034;3.744;2022-10-26T16:49:53;7.07;;;2.30;;
21624;SDS011;10974;51.034;3.744;2022-10-26T16:52:18;6.40;;;2.73;;
21624;SDS011;10974;51.034;3.744;2022-10-26T16:54:44;10.23;;;2.40;;
21624;SDS011;10974;51.034;3.744;2022-10-26T16:57:10;4.93;;;2.30;;
21624;SDS011;10974;51.034;3.744;2022-10-26T16:59:35;3.17;;;2.00;;
21624;SDS011;10974;51.034;3.744;2022-10-26T17:02:01;3.40;;;2.63;;
21624;SDS011;10974;51.034;3.744;2022-10-26T17:04:27;6.70;;;2.20;;
21624;SDS011;10974;51.034;3.744;2022-10-26T17:06:52;8.13;;;1.93;;
21624;SDS011;10974;51.034;3.744;2022-10-26T17:09:18;4.53;;;2.00;;
21624;SDS011;10974;51.034;3.744;2022-10-26T17:11:43;4.50;;;1.90;;
21624;SDS011;10974;51.034;3.744;2022-10-26T17:14:09;5.23;;;2.13;;
21624;SDS011;10974;51.034;3.744;2022-10-26T17:16:35;3.47;;;1.90;;
21624;SDS011;10974;51.034;3.744;2022-10-26T17:19:00;3.27;;;2.10;;
21624;SDS011;10974;51.034;3.744;2022-10-26T17:21:27;5.53;;;2.20;;
21624;SDS011;10974;51.034;3.744;2022-10-26T17:23:58;3.00;;;2.47;;
21624;SDS011;10974;51.034;3.744;2022-10-26T17:26:24;4.93;;;2.20;;
21624;SDS011;10974;51.034;3.744;2022-10-26T17:28:51;3.50;;;2.00;;
21624;SDS011;10974;51.034;3.744;2022-10-26T17:31:17;3.67;;;2.00;;
21624;SDS011;10974;51.034;3.744;2022-10-26T17:33:43;4.20;;;2.33;;
21624;SDS011;10974;51.034;3.744;2022-10-26T17:36:10;4.67;;;2.03;;
21624;SDS011;10974;51.034;3.744;2022-10-26T17:38:37;4.50;;;2.27;;
21624;SDS011;10974;51.034;3.744;2022-10-26T17:41:06;2.37;;;2.17;;
21624;SDS011;10974;51.034;3.744;2022-10-26T17:43:38;4.40;;;2.20;;
21624;SDS011;10974;51.034;3.744;2022-10-26T17:46:05;4.77;;;2.00;;
21624;SDS011;10974;51.034;3.744;2022-10-26T17:48:33;4.63;;;1.93;;
21624;SDS011;10974;51.034;3.744;2022-10-26T17:50:59;3.90;;;2.07;;
21624;SDS011;10974;51.034;3.744;2022-10-26T17:53:28;9.90;;;2.27;;
21624;SDS011;10974;51.034;3.744;2022-10-26T17:58:27;3.67;;;2.27;;
21624;SDS011;10974;51.034;3.744;2022-10-26T18:00:53;3.83;;;2.07;;
21624;SDS011;10974;51.034;3.744;2022-10-26T18:03:19;5.00;;;2.67;;
21624;SDS011;10974;51.034;3.744;2022-10-26T18:05:48;4.87;;;2.40;;
21624;SDS011;10974;51.034;3.744;2022-10-26T18:08:14;3.70;;;2.30;;
21624;SDS011;10974;51.034;3.744;2022-10-26T18:10:50;6.40;;;2.50;;
21624;SDS011;10974;51.034;3.744;2022-10-26T18:13:19;3.67;;;2.03;;
21624;SDS011;10974;51.034;3.744;2022-10-26T18:15:45;2.30;;;2.03;;
21624;SDS011;10974;51.034;3.744;2022-10-26T18:18:11;3.70;;;2.20;;
21624;SDS011;10974;51.034;3.744;2022-10-26T18:20:37;2.83;;;1.90;;
21624;SDS011;10974;51.034;3.744;2022-10-26T18:23:03;4.00;;;2.10;;
21624;SDS011;10974;51.034;3.744;2022-10-26T18:25:29;5.60;;;2.20;;
21624;SDS011;10974;51.034;3.744;2022-10-26T18:27:55;5.77;;;2.00;;
21624;SDS011;10974;51.034;3.744;2022-10-26T18:30:21;6.40;;;2.50;;
21624;SDS011;10974;51.034;3.744;2022-10-26T18:32:48;5.30;;;2.33;;
21624;SDS011;10974;51.034;3.744;2022-10-26T18:35:14;3.40;;;2.30;;
21624;SDS011;10974;51.034;3.744;2022-10-26T18:37:40;6.03;;;2.20;;
21624;SDS011;10974;51.034;3.744;2022-10-26T18:40:07;4.20;;;2.80;;
21624;SDS011;10974;51.034;3.744;2022-10-26T18:42:33;4.13;;;2.20;;
21624;SDS011;10974;51.034;3.744;2022-10-26T18:44:59;4.83;;;2.30;;
21624;SDS011;10974;51.034;3.744;2022-10-26T18:47:27;4.50;;;2.50;;
21624;SDS011;10974;51.034;3.744;2022-10-26T18:49:54;2.97;;;2.10;;
21624;SDS011;10974;51.034;3.744;2022-10-26T18:52:20;3.63;;;2.43;;
21624;SDS011;10974;51.034;3.744;2022-10-26T18:54:51;4.10;;;2.30;;
21624;SDS011;10974;51.034;3.744;2022-10-26T18:57:19;4.80;;;2.63;;
21624;SDS011;10974;51.034;3.744;2022-10-26T18:59:51;5.23;;;2.20;;
21624;SDS011;10974;51.034;3.744;2022-10-26T19:02:17;4.87;;;2.67;;
21624;SDS011;10974;51.034;3.744;2022-10-26T19:04:42;3.97;;;1.93;;
21624;SDS011;10974;51.034;3.744;2022-10-26T19:07:08;5.07;;;2.33;;
21624;SDS011;10974;51.034;3.744;2022-10-26T19:09:33;4.03;;;1.83;;
21624;SDS011;10974;51.034;3.744;2022-10-26T19:11:59;4.50;;;2.43;;
21624;SDS011;10974;51.034;3.744;2022-10-26T19:14:25;4.60;;;2.37;;
21624;SDS011;10974;51.034;3.744;2022-10-26T19:16:50;5.30;;;2.67;;
21624;SDS011;10974;51.034;3.744;2022-10-26T19:19:17;5.50;;;2.27;;
21624;SDS011;10974;51.034;3.744;2022-10-26T19:21:44;4.50;;;2.40;;
21624;SDS011;10974;51.034;3.744;2022-10-26T19:24:12;7.00;;;2.60;;
21624;SDS011;10974;51.034;3.744;2022-10-26T19:26:43;4.53;;;2.23;;
21624;SDS011;10974;51.034;3.744;2022-10-26T19:29:10;4.87;;;2.30;;
21624;SDS011;10974;51.034;3.744;2022-10-26T19:31:40;6.00;;;2.20;;
21624;SDS011;10974;51.034;3.744;2022-10-26T19:34:06;6.80;;;2.50;;
21624;SDS011;10974;51.034;3.744;2022-10-26T19:36:34;4.87;;;2.27;;
21624;SDS011;10974;51.034;3.744;2022-10-26T19:39:00;3.70;;;2.20;;
21624;SDS011;10974;51.034;3.744;2022-10-26T19:41:26;3.50;;;2.23;;
21624;SDS011;10974;51.034;3.744;2022-10-26T19:43:55;4.90;;;2.40;;
21624;SDS011;10974;51.034;3.744;2022-10-26T19:46:22;4.80;;;2.50;;
21624;SDS011;10974;51.034;3.744;2022-10-26T19:48:59;4.50;;;2.50;;
21624;SDS011;10974;51.034;3.744;2022-10-26T19:51:26;6.90;;;2.50;;
21624;SDS011;10974;51.034;3.744;2022-10-26T19:53:53;4.63;;;2.33;;
21624;SDS011;10974;51.034;3.744;2022-10-26T19:56:19;4.13;;;2.00;;
21624;SDS011;10974;51.034;3.744;2022-10-26T19:58:46;6.07;;;2.30;;
21624;SDS011;10974;51.034;3.744;2022-10-26T20:01:14;7.23;;;2.53;;
21624;SDS011;10974;51.034;3.744;2022-10-26T20:03:40;7.07;;;2.53;;
21624;SDS011;10974;51.034;3.744;2022-10-26T20:06:08;6.80;;;2.40;;
21624;SDS011;10974;51.034;3.744;2022-10-26T20:08:43;4.43;;;2.33;;
21624;SDS011;10974;51.034;3.744;2022-10-26T20:11:11;5.87;;;2.73;;
21624;SDS011;10974;51.034;3.744;2022-10-26T20:13:38;6.17;;;2.87;;
21624;SDS011;10974;51.034;3.744;2022-10-26T20:16:05;5.00;;;2.60;;
21624;SDS011;10974;51.034;3.744;2022-10-26T20:18:31;7.83;;;2.73;;
21624;SDS011;10974;51.034;3.744;2022-10-26T20:20:57;5.13;;;2.90;;
21624;SDS011;10974;51.034;3.744;2022-10-26T20:23:22;3.97;;;2.40;;
21624;SDS011;10974;51.034;3.744;2022-10-26T20:25:49;4.80;;;2.37;;
21624;SDS011;10974;51.034;3.744;2022-10-26T20:28:16;3.90;;;2.40;;
21624;SDS011;10974;51.034;3.744;2022-10-26T20:30:42;3.13;;;2.40;;
21624;SDS011;10974;51.034;3.744;2022-10-26T20:33:09;5.00;;;2.53;;
21624;SDS011;10974;51.034;3.744;2022-10-26T20:35:36;3.70;;;2.60;;
21624;SDS011;10974;51.034;3.744;2022-10-26T20:38:02;4.37;;;2.60;;
21624;SDS011;10974;51.034;3.744;2022-10-26T20:40:29;5.63;;;2.50;;
21624;SDS011;10974;51.034;3.744;2022-10-26T20:42:56;3.33;;;1.93;;
21624;SDS011;10974;51.034;3.744;2022-10-26T20:45:26;5.37;;;2.30;;
21624;SDS011;10974;51.034;3.744;2022-10-26T20:47:53;2.33;;;1.77;;
21624;SDS011;10974;51.034;3.744;2022-10-26T20:50:20;4.47;;;1.83;;
21624;SDS011;10974;51.034;3.744;2022-10-26T20:52:53;2.50;;;1.83;;
21624;SDS011;10974;51.034;3.744;2022-10-26T21:01:06;4.60;;;1.60;;
21624;SDS011;10974;51.034;3.744;2022-10-26T21:03:36;3.60;;;1.70;;
21624;SDS011;10974;51.034;3.744;2022-10-26T21:06:02;3.13;;;1.70;;
21624;SDS011;10974;51.034;3.744;2022-10-26T21:08:28;3.67;;;1.60;;
21624;SDS011;10974;51.034;3.744;2022-10-26T21:10:53;2.50;;;1.40;;
21624;SDS011;10974;51.034;3.744;2022-10-26T21:13:19;2.20;;;1.23;;
21624;SDS011;10974;51.034;3.744;2022-10-26T21:15:44;3.20;;;1.63;;
21624;SDS011;10974;51.034;3.744;2022-10-26T21:18:10;3.00;;;1.57;;
21624;SDS011;10974;51.034;3.744;2022-10-26T21:20:36;2.50;;;1.57;;